Time;durP1;ratioP1;P1;durP2;ratioP2;P2;SDS_P1;SDS_P2;PMS_P1;PMS_P2;Temp;Humidity;BMP_temperature;BMP_pressure;BME280_temperature;BME280_humidity;BME280_pressure;Samples;Min_cycle;Max_cycle;Signal;HPM_P1;HPM_P2
2022/07/02 00:00:25;;;;;;;4.97;3.70;;;;;;;18.09;73.86;96604.28;5116794;28;20047;-63
2022/07/02 00:02:55;;;;;;;4.07;3.67;;;;;;;18.11;73.86;96607.69;5116532;28;20075;-63
2022/07/02 00:05:23;;;;;;;4.97;4.25;;;;;;;18.14;73.75;96611.94;5116766;28;20056;-63
2022/07/02 00:07:51;;;;;;;7.82;4.13;;;;;;;18.14;73.74;96610.16;5116711;28;20058;-63
2022/07/02 00:10:20;;;;;;;6.75;3.85;;;;;;;18.17;73.97;96612.59;5116605;28;20101;-63
2022/07/02 00:12:48;;;;;;;9.40;4.20;;;;;;;18.18;73.62;96614.28;5116871;28;20047;-63
2022/07/02 00:15:16;;;;;;;5.22;4.13;;;;;;;18.16;73.46;96610.03;5116551;28;20061;-63
2022/07/02 00:17:44;;;;;;;5.05;4.28;;;;;;;18.08;73.57;96612.31;5116563;28;20040;-63
2022/07/02 00:20:12;;;;;;;6.07;3.67;;;;;;;18.01;73.36;96606.59;5116235;28;20507;-63
2022/07/02 00:22:40;;;;;;;6.80;4.18;;;;;;;17.98;73.92;96604.16;5115906;28;20131;-63
2022/07/02 00:25:08;;;;;;;5.75;3.55;;;;;;;18.01;73.58;96609.25;5116328;28;20052;-62
2022/07/02 00:27:41;;;;;;;4.88;4.13;;;;;;;17.97;73.62;96605.13;5116347;28;20043;-62
2022/07/02 00:30:13;;;;;;;8.50;4.38;;;;;;;17.93;73.45;96609.75;5116185;28;20443;-63
2022/07/02 00:32:42;;;;;;;7.93;4.00;;;;;;;17.90;73.94;96610.81;5116153;28;20040;-63
2022/07/02 00:35:11;;;;;;;7.70;3.83;;;;;;;17.92;74.20;96610.72;5116110;28;20119;-63
2022/07/02 00:37:39;;;;;;;7.15;4.22;;;;;;;17.87;73.96;96612.81;5116172;28;20451;-63
2022/07/02 00:40:07;;;;;;;13.98;4.20;;;;;;;17.84;74.04;96603.28;5115993;28;20112;-63
2022/07/02 00:42:37;;;;;;;5.85;4.28;;;;;;;17.81;74.51;96604.34;5116202;28;20044;-62
2022/07/02 00:45:05;;;;;;;5.07;4.20;;;;;;;17.78;74.25;96606.31;5115936;28;20043;-62
2022/07/02 00:47:34;;;;;;;10.55;3.80;;;;;;;17.77;74.40;96600.22;5115980;27;20573;-62
2022/07/02 00:50:04;;;;;;;6.63;3.78;;;;;;;17.80;74.85;96599.16;5115849;27;20405;-62
2022/07/02 00:52:31;;;;;;;8.37;4.33;;;;;;;17.80;74.77;96604.44;5115833;28;20455;-62
2022/07/02 00:54:58;;;;;;;6.32;3.92;;;;;;;17.81;74.49;96606.13;5115801;28;20047;-62
2022/07/02 00:57:25;;;;;;;11.98;4.45;;;;;;;17.78;74.56;96604.53;5115684;28;20434;-63
2022/07/02 00:59:52;;;;;;;8.32;5.35;;;;;;;17.85;74.85;96606.78;5115604;28;20051;-63
2022/07/02 01:02:22;;;;;;;6.32;4.32;;;;;;;17.85;74.73;96599.69;5115592;28;20051;-63
2022/07/02 01:04:52;;;;;;;10.50;4.30;;;;;;;17.84;74.46;96605.94;5115563;28;20135;-63
2022/07/02 01:07:22;;;;;;;5.40;4.30;;;;;;;17.86;74.77;96609.34;5115590;28;20175;-63
2022/07/02 01:12:36;;;;;;;4.93;4.18;;;;;;;17.77;75.07;96613.44;5115477;28;20128;-63
2022/07/02 01:15:04;;;;;;;6.77;4.33;;;;;;;17.76;75.34;96611.72;5115304;28;20404;-63
2022/07/02 01:17:32;;;;;;;7.15;4.03;;;;;;;17.69;75.57;96610.44;5115344;28;20058;-63
2022/07/02 01:20:02;;;;;;;8.75;4.15;;;;;;;17.68;75.59;96608.75;5115243;28;20587;-63
2022/07/02 01:22:35;;;;;;;14.70;4.28;;;;;;;17.61;75.52;96605.66;5115345;28;20046;-63
2022/07/02 01:25:03;;;;;;;12.02;4.40;;;;;;;17.51;75.96;96600.13;5115212;28;20533;-63
2022/07/02 01:27:31;;;;;;;10.40;4.88;;;;;;;17.38;76.24;96605.38;5115150;28;20047;-62
2022/07/02 01:29:59;;;;;;;8.07;4.50;;;;;;;17.32;77.53;96607.53;5115049;28;20044;-62
2022/07/02 01:32:26;;;;;;;7.55;4.65;;;;;;;17.35;77.45;96600.28;5114181;28;20285;-63
2022/07/02 01:34:54;;;;;;;5.15;4.57;;;;;;;17.38;77.36;96600.06;5114801;28;20085;-63
2022/07/02 01:37:23;;;;;;;4.93;4.30;;;;;;;17.39;76.76;96599.13;5114898;28;20048;-62
2022/07/02 01:39:51;;;;;;;7.35;4.63;;;;;;;17.41;76.71;96593.75;5114927;28;20051;-63
2022/07/02 01:42:18;;;;;;;7.53;4.38;;;;;;;17.27;77.40;96584.91;5114873;28;20476;-63
2022/07/02 01:44:47;;;;;;;5.55;4.38;;;;;;;17.32;76.76;96589.91;5114918;28;20119;-63
2022/07/02 01:47:14;;;;;;;5.22;4.20;;;;;;;17.33;76.72;96591.59;5114959;28;20092;-62
2022/07/02 01:49:42;;;;;;;7.20;4.43;;;;;;;17.34;76.85;96587.16;5114816;28;20053;-62
2022/07/02 01:52:09;;;;;;;8.23;4.88;;;;;;;17.33;76.84;96588.13;5114703;28;20126;-62
2022/07/02 01:54:37;;;;;;;5.85;4.60;;;;;;;17.40;76.98;96594.69;5114587;28;20120;-63
2022/07/02 01:57:07;;;;;;;9.32;5.38;;;;;;;17.39;76.04;96591.19;5114604;27;20086;-63
2022/07/02 01:59:34;;;;;;;4.65;4.22;;;;;;;17.39;75.97;96599.13;5114449;28;20485;-62
2022/07/02 02:02:02;;;;;;;9.00;4.90;;;;;;;17.38;76.16;96597.44;5114786;28;20075;-62
2022/07/02 02:04:29;;;;;;;8.02;4.50;;;;;;;17.40;76.25;96589.41;5114309;28;20040;-63
2022/07/02 02:06:56;;;;;;;5.28;4.53;;;;;;;17.41;75.84;96594.59;5114549;28;20075;-62
2022/07/02 02:09:23;;;;;;;8.57;4.70;;;;;;;17.40;75.51;96594.69;5114239;28;20492;-63
2022/07/02 02:11:50;;;;;;;7.68;4.70;;;;;;;17.39;75.68;96600.91;5114502;28;20043;-62
2022/07/02 02:14:19;;;;;;;7.75;5.53;;;;;;;17.32;75.61;96597.81;5114458;28;20382;-62
2022/07/02 02:16:46;;;;;;;8.73;4.93;;;;;;;17.33;76.21;96598.69;5114143;28;20086;-62
2022/07/02 02:19:13;;;;;;;7.35;4.30;;;;;;;17.33;76.10;96604.81;5114134;28;20131;-62
2022/07/02 02:21:40;;;;;;;6.47;4.90;;;;;;;17.33;76.22;96602.16;5114057;28;20408;-62
2022/07/02 02:24:08;;;;;;;6.65;5.45;;;;;;;17.29;76.46;96595.38;5114001;28;20078;-62
2022/07/02 02:26:35;;;;;;;6.45;4.97;;;;;;;17.28;77.08;96599.81;5113986;28;20583;-62
2022/07/02 02:29:02;;;;;;;7.18;5.65;;;;;;;17.28;77.28;96597.16;5113885;28;20086;-62
2022/07/02 02:31:30;;;;;;;5.95;5.15;;;;;;;17.28;77.15;96594.53;5113941;28;20047;-62
2022/07/02 02:33:58;;;;;;;6.78;5.50;;;;;;;17.27;77.23;96594.63;5113840;28;20044;-62
2022/07/02 02:36:25;;;;;;;9.00;5.95;;;;;;;17.28;76.97;96604.28;5113964;28;20058;-62
2022/07/02 02:38:52;;;;;;;6.80;4.65;;;;;;;17.29;77.02;96598.03;5113846;28;20079;-62
2022/07/02 02:41:19;;;;;;;8.18;5.13;;;;;;;17.29;76.57;96600.66;5113646;28;20051;-62
2022/07/02 02:43:46;;;;;;;8.95;5.47;;;;;;;17.33;76.79;96610.09;5113425;28;20100;-62
2022/07/02 02:46:13;;;;;;;9.15;5.30;;;;;;;17.32;76.47;96603.13;5114230;28;20465;-62
2022/07/02 02:48:42;;;;;;;8.63;5.65;;;;;;;17.34;76.90;96614.41;5113645;28;20044;-62
2022/07/02 02:51:13;;;;;;;9.70;6.00;;;;;;;17.34;77.38;96606.50;5113718;28;20052;-62
2022/07/02 02:53:42;;;;;;;8.55;5.70;;;;;;;17.36;77.49;96612.53;5113653;28;20501;-62
2022/07/02 02:56:09;;;;;;;7.45;5.18;;;;;;;17.40;76.85;96608.75;5113758;28;20404;-62
2022/07/02 02:58:36;;;;;;;13.73;5.75;;;;;;;17.41;76.46;96618.38;5113908;28;20052;-62
2022/07/02 03:01:04;;;;;;;6.93;5.63;;;;;;;17.37;77.07;96613.41;5113631;28;20092;-62
2022/07/02 03:03:31;;;;;;;6.45;5.55;;;;;;;17.40;77.09;96611.38;5113219;28;20052;-62
2022/07/02 03:06:01;;;;;;;6.90;5.65;;;;;;;17.39;76.98;96609.69;5113457;28;20048;-63
2022/07/02 03:19:06;;;;;;;10.23;6.35;;;;;;;18.15;74.04;96613.66;5111401;27;20373;-61
2022/07/02 03:21:33;;;;;;;8.70;5.32;;;;;;;18.09;74.63;96614.03;5111016;28;20550;-61
2022/07/02 03:24:01;;;;;;;8.27;5.90;;;;;;;18.03;75.23;96616.13;5110839;28;20086;-62
2022/07/02 03:26:28;;;;;;;8.02;5.70;;;;;;;18.03;75.25;96615.28;5110738;28;20052;-61
2022/07/02 03:28:55;;;;;;;5.93;5.43;;;;;;;18.01;75.54;96618.03;5110780;28;20130;-61
2022/07/02 03:31:22;;;;;;;5.80;5.30;;;;;;;18.06;75.73;96618.56;5110684;28;20485;-61
2022/07/02 03:33:49;;;;;;;5.60;5.10;;;;;;;18.19;74.93;96625.72;5110607;28;20044;-61
2022/07/02 03:36:18;;;;;;;10.43;5.80;;;;;;;18.37;75.06;96623.63;5110563;28;20048;-61
2022/07/02 03:38:45;;;;;;;10.00;5.15;;;;;;;18.65;74.20;96627.00;5110495;28;20048;-61
2022/07/02 03:41:12;;;;;;;10.88;5.13;;;;;;;18.97;73.59;96632.78;5110583;28;20468;-61
2022/07/02 03:43:39;;;;;;;10.88;4.82;;;;;;;19.32;72.32;96637.41;5110525;28;20044;-62
2022/07/02 03:46:06;;;;;;;6.38;4.45;;;;;;;19.65;71.00;96630.59;5110493;28;20083;-62
2022/07/02 03:48:33;;;;;;;6.35;4.28;;;;;;;19.98;69.70;96638.81;5110302;28;20048;-62
2022/07/02 03:51:00;;;;;;;6.32;4.95;;;;;;;20.35;68.56;96645.88;5110432;28;20102;-62
2022/07/02 03:53:28;;;;;;;7.68;4.55;;;;;;;20.74;67.65;96650.03;5110417;28;20130;-62
2022/07/02 03:55:56;;;;;;;4.88;4.35;;;;;;;21.12;66.63;96643.50;5110334;28;20580;-62
2022/07/02 03:58:23;;;;;;;11.80;4.00;;;;;;;21.38;64.98;96647.72;5110177;28;20048;-62
2022/07/02 04:00:50;;;;;;;6.93;4.07;;;;;;;21.64;64.39;96653.56;5110179;28;20051;-62
2022/07/02 04:03:17;;;;;;;4.97;4.00;;;;;;;21.94;63.76;96651.19;5110256;28;20108;-63
2022/07/02 04:05:44;;;;;;;6.40;4.07;;;;;;;;;;5110226;28;20105;-63
2022/07/02 04:08:11;;;;;;;4.97;3.72;;;;;;;22.61;62.37;96647.50;5109988;28;20091;-62
2022/07/02 04:10:39;;;;;;;4.35;4.03;;;;;;;22.94;61.09;96651.72;5110010;28;20055;-63
2022/07/02 04:13:07;;;;;;;4.03;3.72;;;;;;;23.27;61.00;96648.06;5110013;28;20552;-63
2022/07/02 04:15:35;;;;;;;6.20;4.35;;;;;;;23.55;59.74;96648.31;5109939;28;20134;-63
2022/07/02 04:18:02;;;;;;;5.68;4.00;;;;;;;23.84;59.00;96655.53;5107366;28;20131;-63
2022/07/02 04:20:29;;;;;;;5.38;4.25;;;;;;;24.09;58.68;96650.63;5096019;28;20059;-63
2022/07/02 04:22:56;;;;;;;5.38;3.72;;;;;;;24.39;58.50;96654.13;5096205;28;20093;-63
2022/07/02 04:25:23;;;;;;;5.95;3.63;;;;;;;24.74;57.76;96652.66;5096149;28;20044;-63
2022/07/02 04:27:52;;;;;;;10.68;3.92;;;;;;;25.05;57.16;96648.06;5095973;28;20055;-63
2022/07/02 04:30:19;;;;;;;4.93;4.53;;;;;;;25.39;56.58;96647.50;5095979;28;20420;-63
2022/07/02 04:32:46;;;;;;;4.97;4.07;;;;;;;25.72;55.94;96649.72;5095861;28;20078;-63
2022/07/02 04:35:13;;;;;;;5.20;3.83;;;;;;;26.02;55.12;96649.47;5096019;28;20105;-63
2022/07/02 04:37:41;;;;;;;7.10;3.92;;;;;;;26.28;54.96;96648.72;5095882;28;20378;-63
2022/07/02 04:40:09;;;;;;;5.07;3.70;;;;;;;26.59;54.06;96651.81;5095887;28;20182;-63
2022/07/02 04:42:36;;;;;;;4.25;3.85;;;;;;;26.86;53.45;96651.81;5095831;28;20131;-63
2022/07/02 04:45:05;;;;;;;5.60;4.22;;;;;;;27.10;53.13;96655.66;5095862;28;20048;-63
2022/07/02 04:47:32;;;;;;;6.00;4.45;;;;;;;27.35;53.21;96655.75;5095556;28;20109;-63
2022/07/02 04:50:00;;;;;;;4.53;4.13;;;;;;;27.62;52.17;96653.84;5095634;28;20044;-64
2022/07/02 04:52:27;;;;;;;5.10;4.25;;;;;;;27.90;52.00;96655.44;5095555;28;20052;-63
2022/07/02 04:54:54;;;;;;;4.40;3.95;;;;;;;28.08;51.51;96649.94;5095504;28;20048;-64
2022/07/02 04:57:21;;;;;;;6.85;4.30;;;;;;;28.38;50.64;96652.97;5095370;28;20503;-64
2022/07/02 04:59:48;;;;;;;6.75;4.38;;;;;;;28.62;49.72;96652.09;5095366;28;20052;-64
2022/07/02 05:02:17;;;;;;;4.82;4.25;;;;;;;28.88;50.91;96655.59;5095426;28;20131;-64
2022/07/02 05:04:44;;;;;;;5.10;4.38;;;;;;;29.14;50.69;96659.94;5095542;28;20040;-63
2022/07/02 05:07:11;;;;;;;5.88;4.38;;;;;;;29.39;50.78;96658.00;5095274;28;20051;-64
2022/07/02 05:09:38;;;;;;;7.13;3.90;;;;;;;29.63;49.79;96660.75;5095297;28;20052;-64
2022/07/02 05:12:06;;;;;;;5.15;4.30;;;;;;;29.82;48.63;96655.91;5095192;28;20094;-64
2022/07/02 05:14:33;;;;;;;7.78;4.57;;;;;;;30.07;47.61;96650.38;5095050;28;20082;-64
2022/07/02 05:17:00;;;;;;;9.52;4.85;;;;;;;30.22;45.56;96661.25;5094778;28;20405;-64
2022/07/02 05:19:29;;;;;;;7.35;5.28;;;;;;;30.42;46.35;96656.19;5095053;28;20090;-64
2022/07/02 05:21:56;;;;;;;6.22;5.20;;;;;;;30.52;45.22;96662.16;5095021;28;20083;-64
2022/07/02 05:24:23;;;;;;;9.05;5.78;;;;;;;30.51;44.31;96655.09;5094933;28;20052;-64
2022/07/02 05:26:50;;;;;;;5.60;5.10;;;;;;;30.60;45.47;96658.56;5094881;28;20048;-64
2022/07/02 05:29:17;;;;;;;8.15;4.78;;;;;;;30.97;45.33;96664.13;5094817;28;20161;-64
2022/07/02 05:31:44;;;;;;;5.05;4.35;;;;;;;31.26;43.80;96662.44;5093807;28;20048;-64
2022/07/02 05:34:11;;;;;;;5.82;4.78;;;;;;;31.51;43.27;96655.91;5094975;28;20048;-64
2022/07/02 05:36:40;;;;;;;6.70;4.50;;;;;;;31.64;43.94;96663.34;5094658;28;20048;-64
2022/07/02 05:39:07;;;;;;;8.52;4.60;;;;;;;31.78;44.58;96667.88;5094614;28;20101;-64
2022/07/02 05:41:34;;;;;;;5.57;4.38;;;;;;;31.90;41.68;96665.50;5094674;28;20075;-64
2022/07/02 05:44:01;;;;;;;7.20;4.63;;;;;;;32.01;42.95;96671.47;5094612;28;20485;-64
2022/07/02 05:46:28;;;;;;;5.28;4.78;;;;;;;32.05;41.93;96663.81;5094613;28;20093;-64
2022/07/02 05:48:55;;;;;;;11.13;4.43;;;;;;;32.19;41.66;96668.31;5094503;28;20481;-64
2022/07/02 05:51:23;;;;;;;6.38;4.65;;;;;;;32.40;42.62;96672.03;5094571;28;20044;-64
2022/07/02 05:53:51;;;;;;;5.70;4.80;;;;;;;32.62;41.60;96677.44;5094524;28;20071;-64
2022/07/02 05:56:20;;;;;;;6.05;4.18;;;;;;;32.76;40.14;96675.69;5094280;28;20091;-64
2022/07/02 05:58:47;;;;;;;11.38;4.32;;;;;;;32.88;40.78;96679.53;5094313;28;20078;-64
2022/07/02 06:01:14;;;;;;;6.75;4.28;;;;;;;33.10;40.21;96674.06;5094174;28;20051;-64
2022/07/02 06:03:41;;;;;;;5.55;4.43;;;;;;;33.39;40.97;96677.56;5094118;28;20080;-64
2022/07/02 06:08:59;;;;;;;5.50;4.07;;;;;;;33.56;39.86;96679.94;5055191;28;20049;-64
2022/07/02 06:11:27;;;;;;;5.78;4.20;;;;;;;33.73;38.87;96683.16;5093978;28;20055;-64
2022/07/02 06:13:54;;;;;;;8.05;4.13;;;;;;;33.84;39.03;96686.31;5094039;28;20044;-63
2022/07/02 06:16:21;;;;;;;7.93;3.72;;;;;;;34.04;37.42;96692.63;5093972;28;20047;-64
2022/07/02 06:18:48;;;;;;;11.15;4.07;;;;;;;34.20;37.84;96692.47;5093738;28;20474;-64
2022/07/02 06:21:15;;;;;;;5.25;4.32;;;;;;;34.44;37.31;96691.06;5093902;28;20052;-64
2022/07/02 06:23:42;;;;;;;5.13;3.80;;;;;;;34.63;36.96;96691.25;5093816;28;20051;-64
2022/07/02 06:26:11;;;;;;;7.22;4.40;;;;;;;34.80;37.52;96697.13;5093781;28;20044;-64
2022/07/02 06:28:38;;;;;;;5.43;4.07;;;;;;;34.83;37.16;96690.44;5093734;28;20086;-64
2022/07/02 06:31:05;;;;;;;6.68;4.35;;;;;;;34.98;36.14;96693.78;5093771;28;20055;-64
2022/07/02 06:33:32;;;;;;;8.00;3.92;;;;;;;35.03;35.75;96693.97;5093671;28;20048;-64
2022/07/02 06:36:00;;;;;;;4.63;3.92;;;;;;;35.07;34.04;96694.41;5093667;28;20051;-64
2022/07/02 06:38:27;;;;;;;7.32;3.75;;;;;;;35.14;33.69;96695.22;5093578;28;20097;-64
2022/07/02 06:40:56;;;;;;;5.78;3.92;;;;;;;35.33;33.77;96694.56;5093540;28;20074;-64
2022/07/02 06:43:26;;;;;;;7.93;3.70;;;;;;;35.41;32.93;96688.88;5093410;28;20450;-64
2022/07/02 06:45:53;;;;;;;8.95;4.20;;;;;;;35.49;33.43;96690.53;5093593;28;20048;-64
2022/07/02 06:48:20;;;;;;;8.55;4.00;;;;;;;35.66;33.91;96690.88;5093278;28;20088;-64
2022/07/02 06:50:47;;;;;;;8.48;3.80;;;;;;;35.84;32.75;96700.25;5093438;28;20080;-63
2022/07/02 06:53:15;;;;;;;6.15;3.78;;;;;;;35.96;32.27;96684.91;5093387;28;20078;-64
2022/07/02 06:55:42;;;;;;;6.53;3.97;;;;;;;36.09;31.83;96684.00;5093380;28;20047;-64
2022/07/02 06:58:10;;;;;;;5.50;4.00;;;;;;;36.20;33.01;96689.84;5093345;28;20072;-64
2022/07/02 07:00:38;;;;;;;9.98;3.80;;;;;;;36.26;32.68;96692.50;5093281;28;20054;-63
2022/07/02 07:03:05;;;;;;;7.18;3.97;;;;;;;36.34;32.55;96696.00;5093255;28;20401;-64
2022/07/02 07:05:33;;;;;;;4.28;3.70;;;;;;;36.16;33.11;96683.94;5093126;28;20105;-64
2022/07/02 07:08:00;;;;;;;6.30;4.03;;;;;;;36.26;32.11;96692.50;5093262;28;20098;-63
2022/07/02 07:10:27;;;;;;;5.45;4.35;;;;;;;36.43;32.75;96697.41;5093365;28;20050;-64
2022/07/02 07:12:54;;;;;;;6.20;4.20;;;;;;;36.61;31.95;96695.81;5093242;28;20048;-64
2022/07/02 07:15:22;;;;;;;7.03;4.43;;;;;;;36.62;32.87;96698.31;5093222;28;20044;-64
2022/07/02 07:17:50;;;;;;;6.25;4.63;;;;;;;36.60;30.75;96703.13;5092979;28;20044;-64
2022/07/02 07:20:19;;;;;;;7.35;3.70;;;;;;;36.46;31.27;96705.13;5093215;28;20055;-64
2022/07/02 07:22:46;;;;;;;4.97;4.47;;;;;;;36.52;31.74;96708.84;5093211;28;20041;-64
2022/07/02 07:25:13;;;;;;;7.18;4.60;;;;;;;36.50;32.28;96709.09;5093150;28;20490;-64
2022/07/02 07:27:40;;;;;;;7.38;4.40;;;;;;;36.57;32.73;96702.75;5092940;28;20557;-64
2022/07/02 07:30:08;;;;;;;7.35;4.25;;;;;;;36.61;33.10;96710.25;5093043;28;20052;-64
2022/07/02 07:32:35;;;;;;;9.10;4.05;;;;;;;36.77;32.72;96702.59;5092994;28;20052;-63
2022/07/02 07:35:04;;;;;;;5.95;4.22;;;;;;;36.79;32.36;96714.97;5093097;28;20052;-64
2022/07/02 07:37:31;;;;;;;7.68;4.72;;;;;;;36.74;33.52;96703.91;5093021;28;20136;-64
2022/07/02 07:39:58;;;;;;;8.60;4.57;;;;;;;36.69;33.10;96708.31;5092985;28;20052;-63
2022/07/02 07:42:27;;;;;;;5.20;4.60;;;;;;;36.79;32.85;96705.94;5092972;28;20048;-64
2022/07/02 07:44:54;;;;;;;8.82;4.38;;;;;;;36.90;32.41;96713.38;5092971;28;20121;-64
2022/07/02 07:47:21;;;;;;;5.30;4.25;;;;;;;36.94;32.54;96711.06;5092864;28;20135;-63
2022/07/02 07:49:49;;;;;;;9.63;4.90;;;;;;;36.98;32.14;96712.28;5092817;28;20485;-63
2022/07/02 07:52:17;;;;;;;10.27;4.75;;;;;;;37.05;32.17;96715.75;5092896;28;20052;-63
2022/07/02 07:54:45;;;;;;;5.88;5.00;;;;;;;37.17;32.49;96717.75;5095320;28;20040;-63
2022/07/02 07:57:12;;;;;;;6.38;4.65;;;;;;;37.25;33.04;96712.03;5096536;28;20047;-64
2022/07/02 07:59:39;;;;;;;7.30;4.63;;;;;;;37.25;32.25;96719.38;5096599;28;20051;-63
2022/07/02 08:02:07;;;;;;;6.82;4.90;;;;;;;37.22;31.60;96717.94;5096592;28;20071;-63
2022/07/02 08:04:34;;;;;;;5.72;5.18;;;;;;;36.94;32.42;96718.38;5096515;28;20044;-63
2022/07/02 08:07:01;;;;;;;6.78;4.78;;;;;;;36.96;32.92;96716.28;5096632;28;20070;-63
2022/07/02 08:09:29;;;;;;;6.47;4.75;;;;;;;36.97;33.26;96716.06;5096252;28;20051;-63
2022/07/02 08:11:56;;;;;;;12.27;5.10;;;;;;;36.70;32.31;96726.34;5096405;28;20078;-63
2022/07/02 08:14:24;;;;;;;8.65;4.47;;;;;;;36.68;32.38;96721.09;5096420;28;20105;-63
2022/07/02 08:16:51;;;;;;;8.38;4.20;;;;;;;36.52;32.13;96722.47;5096303;28;20048;-63
2022/07/02 08:19:18;;;;;;;7.00;4.78;;;;;;;36.47;33.08;96717.69;5096229;28;20051;-63
2022/07/02 08:21:46;;;;;;;8.55;4.57;;;;;;;36.50;33.32;96721.84;5096035;28;20055;-63
2022/07/02 08:24:13;;;;;;;8.85;5.03;;;;;;;36.62;33.28;96720.09;5096189;28;20082;-63
2022/07/02 08:26:42;;;;;;;5.45;4.95;;;;;;;36.76;32.36;96720.00;5096082;28;20493;-63
2022/07/02 08:29:10;;;;;;;8.88;5.05;;;;;;;36.85;31.80;96717.84;5095863;28;20526;-63
2022/07/02 08:31:37;;;;;;;7.88;5.15;;;;;;;36.92;32.48;96722.19;5096110;28;20044;-63
2022/07/02 08:34:05;;;;;;;5.07;4.57;;;;;;;36.88;32.55;96728.28;5096135;28;20047;-63
2022/07/02 08:36:32;;;;;;;8.07;5.00;;;;;;;36.87;32.65;96726.63;5095846;28;20048;-63
2022/07/02 08:39:00;;;;;;;5.88;4.18;;;;;;;36.86;31.87;96723.06;5095541;28;20079;-63
2022/07/02 08:41:29;;;;;;;7.18;4.90;;;;;;;36.82;31.24;96726.44;5095732;28;20585;-63
2022/07/02 08:44:01;;;;;;;6.93;4.55;;;;;;;36.76;30.26;96725.47;5095784;28;20094;-63
2022/07/02 08:46:30;;;;;;;8.10;4.80;;;;;;;36.53;31.23;96726.84;5095792;28;20143;-63
2022/07/02 08:49:00;;;;;;;14.07;5.32;;;;;;;36.24;32.56;96726.44;5095540;28;20090;-62
2022/07/02 08:51:28;;;;;;;5.88;4.45;;;;;;;36.27;31.41;96726.81;5095646;28;20230;-63
2022/07/02 08:53:55;;;;;;;7.25;4.85;;;;;;;36.00;33.32;96728.84;5095549;28;20127;-62
2022/07/02 08:56:24;;;;;;;11.00;4.40;;;;;;;36.22;32.73;96726.66;5095449;28;20044;-62
2022/07/02 08:58:53;;;;;;;16.88;5.13;;;;;;;36.33;31.89;96730.56;5095322;28;20055;-62
2022/07/02 09:01:23;;;;;;;8.82;5.22;;;;;;;36.30;32.25;96725.56;5095473;28;20087;-62
2022/07/02 09:03:53;;;;;;;6.13;4.63;;;;;;;36.01;31.24;96744.94;5095418;28;20044;-62
2022/07/02 09:06:21;;;;;;;12.50;4.80;;;;;;;35.25;32.59;96739.13;5095281;28;20127;-62
2022/07/02 09:08:52;;;;;;;5.43;4.10;;;;;;;35.14;32.29;96735.97;5095077;28;20098;-62
2022/07/02 09:11:19;;;;;;;9.35;4.32;;;;;;;34.82;33.42;96738.47;5095192;28;20052;-62
2022/07/02 09:13:47;;;;;;;11.23;4.82;;;;;;;34.60;33.71;96726.97;5095104;28;20043;-62
2022/07/02 09:16:15;;;;;;;13.80;5.38;;;;;;;34.53;35.21;96738.66;5094942;28;20412;-62
2022/07/02 09:18:45;;;;;;;14.00;5.53;;;;;;;33.76;35.04;96747.81;5094847;28;20063;-62
2022/07/02 09:21:12;;;;;;;7.35;5.07;;;;;;;33.21;35.17;96747.69;5095153;28;20485;-61
2022/07/02 09:23:47;;;;;;;10.10;5.65;;;;;;;32.61;36.89;96743.44;5095170;28;20086;-61
2022/07/02 09:26:21;;;;;;;6.38;5.07;;;;;;;32.41;36.39;96738.66;5094892;28;20040;-62
2022/07/02 09:28:55;;;;;;;10.55;5.40;;;;;;;32.58;37.52;96738.41;5094674;28;20048;-61
2022/07/02 09:31:22;;;;;;;11.70;5.22;;;;;;;32.83;37.91;96741.56;5094958;28;20044;-62
2022/07/02 09:33:51;;;;;;;6.80;4.45;;;;;;;32.82;35.79;96741.75;5094791;28;20048;-62
2022/07/02 09:36:18;;;;;;;5.28;4.75;;;;;;;32.86;35.79;96734.91;5094763;28;20083;-61
2022/07/02 09:38:49;;;;;;;11.15;4.40;;;;;;;32.92;37.64;96742.25;5094810;28;20072;-61
2022/07/02 09:41:20;;;;;;;6.80;4.93;;;;;;;32.99;36.13;96743.13;5094645;28;20051;-61
2022/07/02 09:43:53;;;;;;;9.82;4.65;;;;;;;32.94;35.39;96751.03;5094435;28;20066;-61
2022/07/02 09:46:21;;;;;;;7.90;5.00;;;;;;;32.76;36.33;96741.50;5094385;28;20044;-61
2022/07/02 09:48:50;;;;;;;8.10;4.65;;;;;;;32.94;35.93;96734.78;5094301;28;20060;-61
2022/07/02 09:51:18;;;;;;;8.00;4.68;;;;;;;33.06;36.29;96740.50;5094405;28;20048;-61
2022/07/02 09:53:52;;;;;;;6.68;4.82;;;;;;;32.78;37.34;96734.00;5094345;28;20135;-61
2022/07/02 09:56:20;;;;;;;7.97;4.72;;;;;;;32.57;36.17;96739.47;5094257;28;20423;-61
2022/07/02 09:58:48;;;;;;;8.07;4.40;;;;;;;32.71;39.42;96732.31;5094324;28;20052;-62
2022/07/02 10:01:20;;;;;;;8.05;4.47;;;;;;;32.85;36.37;96735.94;5094219;28;20044;-61
2022/07/02 10:03:51;;;;;;;6.60;4.28;;;;;;;32.98;35.19;96736.03;5094310;28;20050;-61
2022/07/02 10:06:20;;;;;;;6.25;4.35;;;;;;;32.74;35.01;96735.44;5094091;28;20054;-61
2022/07/02 10:08:49;;;;;;;6.50;4.70;;;;;;;32.51;34.99;96731.06;5094000;28;20044;-61
2022/07/02 10:11:17;;;;;;;5.30;4.40;;;;;;;32.78;36.08;96727.78;5094032;28;20048;-61
2022/07/02 10:13:46;;;;;;;8.55;4.95;;;;;;;33.15;35.08;96736.63;5094046;28;20758;-61
2022/07/02 10:16:15;;;;;;;5.40;4.68;;;;;;;33.17;33.99;96730.16;5093466;28;20485;-62
2022/07/02 10:18:43;;;;;;;7.50;4.28;;;;;;;33.03;36.13;96733.59;5093497;28;20401;-62
2022/07/02 10:21:14;;;;;;;10.23;4.32;;;;;;;32.68;35.11;96730.81;5093830;28;20044;-61
2022/07/02 10:23:44;;;;;;;5.20;4.22;;;;;;;32.79;35.74;96721.31;5093818;28;20126;-61
2022/07/02 10:26:13;;;;;;;7.15;4.38;;;;;;;32.97;35.46;96726.25;5093731;28;20040;-61
2022/07/02 10:28:40;;;;;;;8.38;4.25;;;;;;;32.73;34.78;96731.06;5093609;28;20478;-61
2022/07/02 10:31:12;;;;;;;5.65;4.20;;;;;;;32.85;35.99;96727.81;5093495;28;20105;-61
2022/07/02 10:33:45;;;;;;;4.90;4.43;;;;;;;32.94;34.39;96715.81;5093577;28;20071;-61
2022/07/02 10:36:17;;;;;;;12.68;4.47;;;;;;;33.03;33.78;96717.34;5093621;28;20040;-61
2022/07/02 10:38:47;;;;;;;4.78;4.22;;;;;;;32.88;33.84;96714.75;5093678;28;20052;-61
2022/07/02 10:41:25;;;;;;;5.80;4.18;;;;;;;32.84;34.27;96718.03;5093569;28;20079;-61
2022/07/02 10:43:56;;;;;;;9.77;4.50;;;;;;;32.43;34.46;96711.41;5093529;28;20073;-61
2022/07/02 10:46:25;;;;;;;6.72;4.53;;;;;;;32.03;36.52;96715.41;5093519;28;20055;-61
2022/07/02 10:48:54;;;;;;;6.20;4.32;;;;;;;32.23;36.80;96709.38;5093353;28;20477;-61
2022/07/02 10:51:24;;;;;;;5.40;4.60;;;;;;;32.55;33.82;96706.34;5093478;28;20044;-61
2022/07/02 10:53:53;;;;;;;6.47;4.95;;;;;;;32.50;33.84;96696.09;5093437;28;20055;-61
2022/07/02 10:56:21;;;;;;;8.55;4.20;;;;;;;32.78;35.08;96706.13;5093404;28;20050;-61
2022/07/02 10:58:48;;;;;;;7.97;4.20;;;;;;;32.63;35.05;96706.22;5093518;28;20113;-61
2022/07/02 11:01:18;;;;;;;12.70;4.40;;;;;;;32.75;35.33;96712.75;5093233;28;20048;-61
2022/07/02 11:03:53;;;;;;;6.88;4.35;;;;;;;32.81;34.41;96710.31;5093175;28;20055;-61
2022/07/02 11:06:24;;;;;;;4.72;4.25;;;;;;;32.92;35.43;96715.16;5093211;28;20082;-61
2022/07/02 11:08:57;;;;;;;7.50;4.25;;;;;;;32.86;35.43;96714.09;5093186;28;20055;-61
2022/07/02 11:11:45;;;;;;;7.72;4.65;;;;;;;32.86;35.17;96710.53;5093292;28;20482;-61
2022/07/02 11:14:15;;;;;;;5.00;4.20;;;;;;;32.47;34.16;96705.41;5093115;28;20121;-61
2022/07/02 11:16:46;;;;;;;4.93;4.30;;;;;;;32.38;35.06;96703.84;5093141;28;20094;-61
2022/07/02 11:19:17;;;;;;;6.30;4.47;;;;;;;32.30;34.97;96710.25;5092943;28;20056;-61
2022/07/02 11:21:46;;;;;;;5.03;4.55;;;;;;;32.31;34.27;96711.94;5093167;28;20105;-61
2022/07/02 11:24:16;;;;;;;7.18;4.28;;;;;;;32.38;34.41;96695.75;5093125;28;20466;-61
2022/07/02 11:26:45;;;;;;;6.40;5.00;;;;;;;32.73;32.79;96704.00;5093089;28;20493;-61
2022/07/02 11:29:13;;;;;;;5.60;4.25;;;;;;;33.00;33.53;96703.34;5094730;28;20055;-61
2022/07/02 11:31:42;;;;;;;5.07;3.90;;;;;;;33.11;33.27;96699.28;5097179;28;20052;-61
2022/07/02 11:34:10;;;;;;;6.15;3.90;;;;;;;32.90;34.20;96712.66;5096974;28;20135;-61
2022/07/02 11:36:38;;;;;;;4.78;4.20;;;;;;;32.74;33.71;96705.66;5097012;28;20044;-61
2022/07/02 11:39:12;;;;;;;6.70;4.30;;;;;;;32.68;34.28;96697.50;5096877;28;20165;-61
2022/07/02 11:41:40;;;;;;;6.78;3.67;;;;;;;32.64;34.55;96703.31;5097031;28;20048;-61
2022/07/02 11:44:18;;;;;;;10.95;4.63;;;;;;;32.32;34.49;96704.66;5096834;28;20080;-60
2022/07/02 11:46:49;;;;;;;9.95;4.63;;;;;;;32.37;36.08;96702.19;5096801;28;20052;-60
2022/07/02 11:49:18;;;;;;;11.00;4.38;;;;;;;32.40;34.49;96699.94;5096588;28;20459;-61
2022/07/02 11:51:47;;;;;;;6.55;4.35;;;;;;;32.45;33.93;96698.53;5096767;28;20048;-61
2022/07/02 11:54:18;;;;;;;6.78;4.05;;;;;;;32.51;33.62;96695.91;5096582;28;20442;-61